Time;durP1;ratioP1;P1;durP2;ratioP2;P2;SDS_P1;SDS_P2;PMS_P1;PMS_P2;Temp;Humidity;BMP_temperature;BMP_pressure;BME280_temperature;BME280_humidity;BME280_pressure;Samples;Min_cycle;Max_cycle;Signal;HPM_P1;HPM_P2
2022/02/13 00:02:11;;;;;;;1.30;0.82;;;19.30;47.60;;;;;;6169980;28;20549;-66
2022/02/13 00:05:13;;;;;;;1.40;1.00;;;19.30;47.60;;;;;;6169805;28;20027;-66
2022/02/13 00:08:13;;;;;;;1.15;0.80;;;19.30;47.70;;;;;;6169201;28;20027;-66
2022/02/13 00:11:16;;;;;;;1.25;0.82;;;19.30;47.60;;;;;;6170193;28;20035;-66
2022/02/13 00:14:16;;;;;;;1.92;1.23;;;19.30;47.60;;;;;;6169430;28;20030;-66
2022/02/13 00:17:17;;;;;;;1.70;0.88;;;19.30;47.70;;;;;;6169953;28;20363;-66
2022/02/13 00:20:17;;;;;;;1.13;0.90;;;19.30;47.60;;;;;;6169428;28;20027;-66
2022/02/13 00:23:18;;;;;;;1.23;0.90;;;19.30;47.60;;;;;;6169784;28;20382;-66
2022/02/13 00:26:18;;;;;;;1.75;1.02;;;19.30;47.50;;;;;;6173598;28;20031;-66
2022/02/13 00:29:19;;;;;;;1.52;0.90;;;19.30;47.60;;;;;;6174326;28;20041;-66
2022/02/13 00:32:21;;;;;;;1.20;1.00;;;19.30;47.70;;;;;;6170716;28;20213;-66
2022/02/13 00:35:22;;;;;;;1.52;0.88;;;19.30;47.70;;;;;;6150137;28;20066;-66
2022/02/13 00:38:22;;;;;;;1.92;1.00;;;19.30;47.60;;;;;;6150521;28;20382;-66
2022/02/13 00:41:23;;;;;;;1.42;1.10;;;19.30;47.50;;;;;;6150118;28;20492;-66
2022/02/13 00:44:23;;;;;;;1.50;0.98;;;19.30;47.50;;;;;;6150114;29;20031;-66
2022/02/13 00:47:24;;;;;;;1.23;0.90;;;19.30;47.60;;;;;;6150318;29;20110;-66
2022/02/13 00:50:25;;;;;;;1.60;1.02;;;19.30;47.70;;;;;;6150080;29;20482;-66
2022/02/13 00:53:25;;;;;;;1.15;0.80;;;19.30;47.60;;;;;;6150078;29;20031;-66
2022/02/13 00:56:26;;;;;;;1.25;0.93;;;19.30;47.60;;;;;;6149629;29;20055;-66
2022/02/13 00:59:27;;;;;;;1.35;0.98;;;19.30;47.40;;;;;;6150155;29;20023;-66
2022/02/13 01:02:28;;;;;;;1.35;1.00;;;19.30;47.50;;;;;;6149759;29;20490;-66
2022/02/13 01:05:28;;;;;;;2.00;1.20;;;19.30;47.60;;;;;;6149670;29;20038;-66
2022/02/13 01:08:30;;;;;;;1.63;1.00;;;19.30;47.60;;;;;;6173275;28;20067;-66
2022/02/13 01:11:31;;;;;;;1.17;0.82;;;19.30;47.70;;;;;;6173630;28;20051;-66
2022/02/13 01:14:32;;;;;;;1.20;0.80;;;19.30;47.60;;;;;;6173801;28;20466;-66
2022/02/13 01:17:34;;;;;;;1.30;0.95;;;19.30;47.60;;;;;;6172935;28;20031;-66
2022/02/13 01:20:35;;;;;;;1.27;1.13;;;19.30;47.60;;;;;;6173472;28;20027;-66
2022/02/13 01:23:35;;;;;;;1.77;1.00;;;19.30;47.70;;;;;;6173243;28;20566;-66
2022/02/13 01:26:36;;;;;;;1.30;1.05;;;19.30;47.70;;;;;;6173298;28;20030;-66
2022/02/13 01:29:36;;;;;;;1.52;0.90;;;19.30;47.70;;;;;;6172796;28;20034;-66
2022/02/13 01:32:37;;;;;;;1.58;1.10;;;19.30;47.70;;;;;;6167166;28;20451;-66
2022/02/13 01:35:38;;;;;;;1.35;0.95;;;19.30;47.50;;;;;;6148403;28;20078;-66
2022/02/13 01:38:38;;;;;;;1.50;1.00;;;19.30;47.60;;;;;;6149193;28;20106;-66
2022/02/13 01:41:39;;;;;;;1.33;0.90;;;19.30;47.70;;;;;;6148754;28;20053;-66
2022/02/13 01:44:40;;;;;;;1.80;1.20;;;19.30;47.60;;;;;;6148645;29;20110;-66
2022/02/13 01:47:41;;;;;;;1.83;1.30;;;19.30;47.60;;;;;;6163227;28;20027;-66
2022/02/13 01:50:42;;;;;;;1.15;0.85;;;19.30;47.60;;;;;;6172593;28;20031;-66
2022/02/13 01:53:43;;;;;;;1.00;0.77;;;19.30;47.70;;;;;;6172285;28;20272;-66
2022/02/13 01:56:45;;;;;;;0.90;0.70;;;19.30;47.60;;;;;;6172660;28;20355;-66
2022/02/13 01:59:45;;;;;;;1.33;1.00;;;19.30;48.30;;;;;;6172550;28;20030;-66
2022/02/13 02:02:46;;;;;;;1.05;0.95;;;19.30;47.60;;;;;;6172566;28;20034;-66
2022/02/13 02:05:46;;;;;;;2.17;1.10;;;19.30;47.60;;;;;;6171499;28;20030;-66
2022/02/13 02:08:47;;;;;;;1.00;0.80;;;19.30;47.60;;;;;;6172645;28;20414;-65
2022/02/13 02:11:47;;;;;;;1.42;0.90;;;19.30;47.60;;;;;;6172100;28;20421;-66
2022/02/13 02:14:49;;;;;;;1.30;0.90;;;19.30;47.70;;;;;;6172258;28;20027;-66
2022/02/13 02:17:50;;;;;;;1.45;1.00;;;19.30;47.60;;;;;;6171740;28;20100;-66
2022/02/13 02:20:52;;;;;;;2.08;1.10;;;19.20;47.60;;;;;;6172278;28;20023;-66
2022/02/13 02:23:53;;;;;;;1.23;0.90;;;19.30;47.60;;;;;;6171667;28;20492;-66
2022/02/13 02:26:53;;;;;;;1.02;0.80;;;19.30;47.70;;;;;;6172053;28;20027;-66
2022/02/13 02:29:54;;;;;;;1.67;1.23;;;19.30;47.70;;;;;;6171678;28;20449;-66
2022/02/13 02:32:55;;;;;;;1.50;1.10;;;19.30;47.50;;;;;;6163327;28;20031;-65
2022/02/13 02:35:55;;;;;;;1.40;0.90;;;19.30;47.60;;;;;;6147398;28;20066;-65
2022/02/13 02:38:56;;;;;;;0.85;0.77;;;19.30;47.70;;;;;;6159718;28;20033;-66
2022/02/13 02:41:56;;;;;;;1.25;1.00;;;19.30;47.40;;;;;;6162011;28;20023;-66
2022/02/13 02:44:57;;;;;;;0.80;0.80;;;19.30;47.60;;;;;;6147440;29;20031;-66
2022/02/13 02:47:57;;;;;;;1.30;1.00;;;19.30;47.50;;;;;;6146581;28;20023;-66
2022/02/13 02:50:58;;;;;;;1.85;1.20;;;19.30;47.60;;;;;;6147485;29;20035;-66
2022/02/13 02:53:58;;;;;;;1.25;0.90;;;19.30;47.60;;;;;;6147192;29;20224;-66
2022/02/13 02:56:59;;;;;;;1.75;1.10;;;19.30;47.70;;;;;;6147400;29;20067;-66
2022/02/13 02:59:59;;;;;;;1.85;1.20;;;19.30;47.80;;;;;;6146052;29;20020;-67
2022/02/13 03:03:00;;;;;;;2.40;1.05;;;19.30;47.70;;;;;;6147053;29;20027;-66
2022/02/13 03:06:01;;;;;;;1.63;1.10;;;19.30;47.70;;;;;;6150390;28;20019;-66
2022/02/13 03:09:02;;;;;;;2.08;1.15;;;19.30;47.70;;;;;;6170910;28;20034;-65
2022/02/13 03:12:03;;;;;;;2.72;1.40;;;19.30;47.70;;;;;;6171221;28;20019;-66
2022/02/13 03:15:05;;;;;;;4.47;1.30;;;19.30;47.70;;;;;;6171403;28;20480;-66
2022/02/13 03:18:06;;;;;;;2.78;1.05;;;19.30;47.80;;;;;;6170998;28;20042;-66
2022/02/13 03:21:06;;;;;;;5.70;1.33;;;19.30;47.80;;;;;;6170729;28;20039;-66
2022/02/13 03:24:07;;;;;;;2.85;1.40;;;19.30;47.70;;;;;;6170374;28;20039;-66
2022/02/13 03:27:07;;;;;;;6.30;1.40;;;19.30;47.80;;;;;;6170381;28;20363;-66
2022/02/13 03:30:08;;;;;;;3.60;1.60;;;19.30;47.80;;;;;;6170454;28;20514;-66
2022/02/13 03:33:09;;;;;;;3.05;1.40;;;19.30;47.70;;;;;;6159909;28;20058;-66
2022/02/13 03:36:09;;;;;;;4.82;1.70;;;19.30;47.80;;;;;;6146023;28;20443;-66
2022/02/13 03:39:10;;;;;;;3.85;2.03;;;19.30;47.80;;;;;;6146407;28;20050;-66
2022/02/13 03:42:12;;;;;;;3.90;1.67;;;19.30;47.80;;;;;;6146321;28;20035;-66
2022/02/13 03:45:13;;;;;;;7.82;1.85;;;19.30;47.80;;;;;;6146028;29;20023;-66
2022/02/13 03:48:14;;;;;;;3.42;1.60;;;19.30;47.80;;;;;;6146201;29;20039;-66
2022/02/13 03:51:15;;;;;;;3.63;1.58;;;19.30;47.90;;;;;;6146134;29;20257;-66
2022/02/13 03:54:15;;;;;;;5.15;1.90;;;19.30;47.80;;;;;;6146154;29;20482;-65
2022/02/13 03:57:16;;;;;;;5.80;1.83;;;19.30;47.80;;;;;;6145490;29;20037;-66
2022/02/13 04:00:16;;;;;;;3.15;1.70;;;19.30;47.70;;;;;;6145899;29;20039;-66
2022/02/13 04:03:17;;;;;;;7.63;2.50;;;19.30;47.80;;;;;;6145994;29;20062;-66
2022/02/13 04:06:17;;;;;;;7.70;1.98;;;19.30;47.80;;;;;;6152107;28;20026;-66
2022/02/13 04:09:18;;;;;;;3.95;1.80;;;19.30;47.70;;;;;;6169953;28;20023;-66
2022/02/13 04:12:18;;;;;;;6.13;2.13;;;19.30;47.70;;;;;;6169674;28;20035;-66
2022/02/13 04:15:19;;;;;;;7.13;2.35;;;19.30;47.70;;;;;;6169626;28;20026;-66
2022/02/13 04:18:19;;;;;;;4.68;1.85;;;19.30;47.60;;;;;;6169580;28;20062;-66
2022/02/13 04:21:20;;;;;;;8.70;2.35;;;19.30;47.60;;;;;;6169698;28;20023;-66
2022/02/13 04:24:20;;;;;;;4.82;1.98;;;19.30;47.60;;;;;;6169945;28;20027;-66
2022/02/13 04:27:21;;;;;;;6.20;2.15;;;19.30;47.80;;;;;;6169551;28;20030;-66
2022/02/13 04:30:22;;;;;;;4.93;2.00;;;19.30;47.80;;;;;;6169373;28;20106;-66
2022/02/13 04:33:23;;;;;;;6.07;2.47;;;19.30;47.80;;;;;;6157136;28;20031;-66
2022/02/13 04:36:23;;;;;;;3.65;1.85;;;19.30;47.80;;;;;;6145634;28;20069;-66
2022/02/13 04:39:24;;;;;;;4.28;1.80;;;19.30;47.80;;;;;;6158800;28;20019;-66
2022/02/13 04:42:25;;;;;;;6.35;2.17;;;19.30;47.90;;;;;;6156361;28;20027;-66
2022/02/13 04:45:25;;;;;;;9.40;2.83;;;19.30;47.90;;;;;;6145310;29;20453;-66
2022/02/13 04:48:26;;;;;;;7.25;2.30;;;19.30;48.00;;;;;;6145755;29;20413;-66
2022/02/13 04:51:27;;;;;;;6.65;2.28;;;19.30;48.00;;;;;;6145249;29;20054;-66
2022/02/13 04:54:27;;;;;;;5.35;2.53;;;19.30;48.00;;;;;;6145593;29;20059;-66
2022/02/13 04:57:28;;;;;;;5.28;2.40;;;19.30;48.10;;;;;;6145387;29;20035;-66
2022/02/13 05:00:46;;;;;;;5.22;2.20;;;19.30;48.00;;;;;;6145110;29;20027;-66
2022/02/13 05:03:47;;;;;;;5.70;2.35;;;19.30;48.00;;;;;;6145208;29;20107;-66
2022/02/13 05:06:47;;;;;;;6.10;2.42;;;19.30;48.00;;;;;;6155229;28;20402;-66
2022/02/13 05:09:48;;;;;;;4.45;1.92;;;19.30;48.70;;;;;;6169100;28;20039;-66
2022/02/13 05:12:48;;;;;;;5.85;2.28;;;19.30;48.00;;;;;;6172561;28;20379;-66
2022/02/13 05:15:49;;;;;;;5.75;2.08;;;19.30;47.90;;;;;;6173490;28;20031;-66
2022/02/13 05:18:49;;;;;;;4.68;2.30;;;19.30;48.00;;;;;;6173240;28;20498;-66
2022/02/13 05:21:54;;;;;;;4.55;2.00;;;19.30;47.90;;;;;;6173628;28;20037;-66
2022/02/13 05:24:55;;;;;;;;;;;19.30;47.90;;;;;;6173466;28;20474;-66
2022/02/13 05:27:56;;;;;;;4.18;2.10;;;19.30;47.90;;;;;;6173161;28;19964;-66
2022/02/13 05:30:56;;;;;;;4.60;2.15;;;19.30;48.00;;;;;;6172823;28;20276;-66
2022/02/13 05:33:58;;;;;;;4.10;2.08;;;19.30;47.80;;;;;;6156124;28;20443;-66
2022/02/13 05:36:59;;;;;;;5.63;2.20;;;19.30;47.90;;;;;;6148877;28;20034;-67
2022/02/13 05:39:59;;;;;;;5.88;2.20;;;19.30;47.90;;;;;;6162670;28;20026;-66
2022/02/13 05:43:00;;;;;;;3.83;1.80;;;19.30;47.90;;;;;;6153487;28;20029;-67
2022/02/13 05:46:00;;;;;;;5.15;1.90;;;19.30;48.00;;;;;;6148406;29;20554;-66
2022/02/13 05:49:01;;;;;;;4.50;2.08;;;19.30;47.90;;;;;;6148950;29;20031;-66
2022/02/13 05:52:02;;;;;;;3.05;1.80;;;19.30;47.90;;;;;;6148648;29;20077;-66
2022/02/13 05:55:03;;;;;;;3.92;2.00;;;19.30;47.90;;;;;;6148240;29;20062;-66
2022/02/13 05:58:03;;;;;;;4.80;1.83;;;19.30;48.00;;;;;;6148392;29;20027;-66
2022/02/13 06:01:04;;;;;;;3.25;1.83;;;19.30;47.80;;;;;;6148560;28;20026;-66
2022/02/13 06:04:05;;;;;;;3.70;2.38;;;19.30;47.90;;;;;;6148610;28;20062;-66
2022/02/13 06:07:05;;;;;;;3.65;1.90;;;19.30;47.80;;;;;;6160952;28;20027;-66
2022/02/13 06:10:08;;;;;;;3.20;1.83;;;19.30;47.90;;;;;;6172447;28;20093;-66
2022/02/13 06:13:08;;;;;;;2.97;1.85;;;19.30;48.00;;;;;;6172174;28;20412;-66
2022/02/13 06:16:09;;;;;;;4.13;1.73;;;19.30;47.90;;;;;;6172252;28;20035;-66
2022/02/13 06:19:10;;;;;;;3.50;1.67;;;19.30;47.90;;;;;;6171896;28;20035;-66
2022/02/13 06:22:10;;;;;;;3.63;2.00;;;19.30;47.90;;;;;;6171845;28;20027;-66
2022/02/13 06:25:11;;;;;;;3.70;1.77;;;19.30;47.90;;;;;;6171719;28;20375;-66
2022/02/13 06:28:13;;;;;;;3.40;1.73;;;19.30;48.70;;;;;;6172148;28;20039;-67
2022/02/13 06:31:13;;;;;;;3.58;1.80;;;19.30;47.90;;;;;;6171292;28;20119;-66
2022/02/13 06:34:15;;;;;;;3.85;1.70;;;19.30;47.80;;;;;;6152426;28;20023;-66
2022/02/13 06:37:16;;;;;;;3.38;1.55;;;19.30;47.90;;;;;;6147679;28;20027;-66
2022/02/13 06:40:17;;;;;;;3.67;1.67;;;19.30;47.90;;;;;;6147716;28;20114;-66
2022/02/13 06:43:17;;;;;;;3.20;1.70;;;19.30;48.00;;;;;;6147714;28;20031;-66
2022/02/13 06:46:18;;;;;;;2.78;1.50;;;19.30;47.90;;;;;;6147409;29;20031;-66
2022/02/13 06:49:19;;;;;;;2.92;1.80;;;19.30;47.90;;;;;;6147710;29;20027;-66
2022/02/13 06:52:19;;;;;;;3.50;1.77;;;19.30;48.00;;;;;;6147181;29;20082;-66
2022/02/13 06:55:20;;;;;;;4.30;1.92;;;19.30;47.90;;;;;;6146935;29;20059;-66
2022/02/13 06:58:21;;;;;;;3.45;1.90;;;19.30;48.00;;;;;;6147343;29;20031;-66
2022/02/13 07:01:21;;;;;;;3.42;1.55;;;19.30;47.90;;;;;;6147025;29;20027;-66
2022/02/13 07:04:21;;;;;;;2.97;1.75;;;19.30;47.90;;;;;;6147043;29;20030;-66
2022/02/13 07:07:22;;;;;;;2.88;1.60;;;19.30;47.90;;;;;;6161769;28;20161;-66
2022/02/13 07:10:22;;;;;;;3.35;1.63;;;19.30;47.80;;;;;;6170985;28;20062;-66
2022/02/13 07:13:23;;;;;;;2.30;1.42;;;19.30;47.90;;;;;;6170611;28;20107;-66
2022/02/13 07:16:24;;;;;;;2.90;1.60;;;19.30;48.00;;;;;;6170539;28;20386;-66
2022/02/13 07:19:24;;;;;;;1.75;1.33;;;19.30;48.00;;;;;;6170624;28;20074;-66
2022/02/13 07:22:25;;;;;;;2.50;1.58;;;19.30;48.00;;;;;;6170661;28;20292;-66
2022/02/13 07:25:25;;;;;;;2.97;1.50;;;19.30;47.90;;;;;;6170766;28;20047;-66
2022/02/13 07:31:45;;;;;;;3.15;1.63;;;19.30;47.80;;;;;;6170336;28;20038;-65
2022/02/13 07:34:45;;;;;;;2.72;1.48;;;19.30;48.00;;;;;;6146573;28;20033;-66
2022/02/13 07:37:46;;;;;;;2.63;1.58;;;19.30;48.10;;;;;;6146149;28;20108;-66
2022/02/13 07:40:46;;;;;;;2.35;1.40;;;19.30;48.00;;;;;;6145911;28;20050;-66
2022/02/13 07:43:48;;;;;;;2.50;1.45;;;19.30;48.10;;;;;;6146679;29;20535;-66
2022/02/13 07:46:49;;;;;;;3.38;1.80;;;19.30;47.80;;;;;;6145919;29;20575;-66
2022/02/13 07:49:49;;;;;;;2.05;1.40;;;19.30;47.90;;;;;;6146695;29;20162;-66
2022/02/13 07:52:50;;;;;;;2.42;1.60;;;19.30;47.90;;;;;;6145915;29;20502;-66
2022/02/13 07:55:50;;;;;;;2.22;1.50;;;19.30;47.90;;;;;;6145841;29;20502;-66
2022/02/13 07:58:52;;;;;;;2.17;1.38;;;19.30;48.00;;;;;;6145681;29;20086;-66
2022/02/13 08:01:53;;;;;;;2.72;1.50;;;19.30;48.00;;;;;;6157132;28;20031;-66
2022/02/13 08:04:53;;;;;;;2.17;1.50;;;19.30;47.90;;;;;;6169974;28;20101;-65
2022/02/13 08:07:54;;;;;;;2.42;1.50;;;19.30;48.00;;;;;;6169791;28;20114;-65
2022/02/13 08:10:54;;;;;;;2.28;1.48;;;19.30;48.00;;;;;;6169800;28;20042;-66
2022/02/13 08:13:56;;;;;;;2.55;1.30;;;19.30;48.00;;;;;;6169328;28;20037;-66
2022/02/13 08:16:56;;;;;;;3.47;1.58;;;19.30;47.90;;;;;;6169730;28;20153;-66
2022/02/13 08:19:58;;;;;;;2.00;1.20;;;19.30;47.90;;;;;;6169860;28;20031;-66
2022/02/13 08:22:58;;;;;;;2.10;1.20;;;19.30;47.90;;;;;;6169719;28;20031;-66
2022/02/13 08:25:59;;;;;;;1.92;1.35;;;19.20;47.80;;;;;;6169419;28;20433;-66
2022/02/13 08:29:00;;;;;;;2.08;1.40;;;19.30;48.00;;;;;;6169713;28;20082;-66
2022/02/13 08:32:01;;;;;;;2.60;1.30;;;19.30;47.90;;;;;;6168118;28;20038;-66
2022/02/13 08:35:01;;;;;;;2.38;1.20;;;19.30;48.00;;;;;;6145434;28;20505;-66
2022/02/13 08:38:03;;;;;;;2.80;1.50;;;19.30;47.90;;;;;;6145684;28;20603;-66
2022/02/13 08:41:05;;;;;;;2.25;1.38;;;19.30;48.00;;;;;;6145569;28;20079;-66
2022/02/13 08:44:06;;;;;;;2.50;1.33;;;19.30;48.00;;;;;;6145522;29;20031;-66
2022/02/13 08:47:07;;;;;;;2.03;1.40;;;19.30;48.00;;;;;;6148776;28;20035;-66
2022/02/13 08:50:08;;;;;;;1.95;1.17;;;19.20;47.90;;;;;;6149763;29;20174;-66
2022/02/13 08:53:08;;;;;;;2.30;1.52;;;19.30;48.00;;;;;;6150274;29;20070;-66
2022/02/13 08:56:09;;;;;;;2.92;1.50;;;19.30;48.10;;;;;;6171392;28;20066;-66
2022/02/13 08:59:09;;;;;;;1.98;1.30;;;19.30;48.00;;;;;;6173920;28;20027;-66
2022/02/13 09:02:10;;;;;;;3.22;1.13;;;19.30;48.10;;;;;;6173509;28;20035;-66
2022/02/13 09:05:10;;;;;;;1.98;1.38;;;19.20;47.90;;;;;;6173772;28;20352;-66
2022/02/13 09:08:11;;;;;;;2.28;1.38;;;19.30;48.00;;;;;;6173941;28;20058;-66
2022/02/13 09:11:11;;;;;;;2.15;1.30;;;19.30;48.00;;;;;;6173361;28;20045;-66
2022/02/13 09:14:12;;;;;;;2.53;1.42;;;19.30;48.00;;;;;;6173796;28;20034;-66
2022/02/13 09:17:13;;;;;;;2.20;1.17;;;19.30;48.00;;;;;;6173522;28;20034;-66
2022/02/13 09:20:14;;;;;;;1.92;1.27;;;19.30;48.10;;;;;;6173282;28;20027;-66
2022/02/13 09:23:21;;;;;;;2.17;1.27;;;19.20;47.90;;;;;;6173716;28;20085;-66
2022/02/13 09:26:22;;;;;;;3.08;1.40;;;19.30;48.00;;;;;;6173013;28;20026;-66
2022/02/13 09:29:22;;;;;;;1.40;1.10;;;19.30;48.10;;;;;;6173251;28;20512;-66
2022/02/13 09:32:23;;;;;;;2.17;1.48;;;19.30;48.00;;;;;;6165137;28;20058;-66
2022/02/13 09:35:24;;;;;;;2.00;1.08;;;19.30;47.90;;;;;;6149440;28;20062;-66
2022/02/13 09:38:24;;;;;;;1.88;1.00;;;19.30;48.10;;;;;;6149233;28;20028;-66
2022/02/13 09:41:25;;;;;;;2.05;1.00;;;19.30;48.10;;;;;;6149121;28;20106;-66
2022/02/13 09:44:25;;;;;;;1.63;1.13;;;19.30;48.00;;;;;;6148746;29;20042;-66
2022/02/13 09:47:28;;;;;;;1.55;1.10;;;19.30;48.10;;;;;;6148868;29;20387;-66
2022/02/13 09:50:30;;;;;;;1.27;1.00;;;19.30;48.10;;;;;;6148884;29;20046;-66
2022/02/13 09:53:34;;;;;;;1.23;0.90;;;19.30;48.10;;;;;;6155605;28;20026;-66
2022/02/13 09:56:35;;;;;;;2.27;1.20;;;19.30;48.00;;;;;;6172708;28;20026;-66
2022/02/13 09:59:55;;;;;;;2.00;1.08;;;19.30;48.00;;;;;;6172040;28;20025;-66
2022/02/13 10:02:55;;;;;;;2.22;1.20;;;19.30;48.00;;;;;;6172726;28;20458;-68
2022/02/13 10:06:00;;;;;;;1.40;1.05;;;19.30;48.10;;;;;;6172281;28;20038;-66
2022/02/13 10:09:01;;;;;;;1.08;0.93;;;19.30;48.10;;;;;;6172666;28;20482;-66
2022/02/13 10:12:02;;;;;;;1.80;1.10;;;19.30;48.10;;;;;;6171938;28;20038;-66
2022/02/13 10:15:27;;;;;;;1.92;1.15;;;19.30;48.00;;;;;;6172558;28;20065;-66
2022/02/13 10:18:27;;;;;;;1.42;1.00;;;19.30;48.10;;;;;;6172562;28;20026;-66
2022/02/13 10:21:32;;;;;;;1.92;1.10;;;19.30;48.10;;;;;;6171995;28;20045;-66
2022/02/13 10:24:34;;;;;;;1.90;1.00;;;19.30;48.00;;;;;;6171999;28;20034;-66
2022/02/13 10:27:45;;;;;;;2.00;1.17;;;19.30;48.00;;;;;;6171965;28;20154;-66
2022/02/13 10:30:46;;;;;;;1.50;1.02;;;19.30;48.00;;;;;;6172037;28;20049;-66
2022/02/13 10:33:57;;;;;;;2.28;1.05;;;19.30;48.00;;;;;;6156211;28;20793;-66
2022/02/13 10:36:57;;;;;;;1.23;1.02;;;19.30;48.10;;;;;;6147853;28;20020;-66
2022/02/13 10:40:03;;;;;;;1.20;0.90;;;19.30;48.10;;;;;;6148288;28;20490;-66
2022/02/13 10:43:11;;;;;;;1.80;1.00;;;19.30;48.10;;;;;;6147488;28;20035;-66
2022/02/13 10:46:17;;;;;;;2.67;0.90;;;19.30;48.00;;;;;;6147784;29;20087;-66
2022/02/13 10:49:18;;;;;;;1.05;0.80;;;19.30;48.10;;;;;;6147455;29;20090;-66
2022/02/13 10:52:19;;;;;;;1.33;0.95;;;19.30;48.20;;;;;;6147406;28;20134;-66
2022/02/13 10:55:20;;;;;;;2.20;0.98;;;19.30;48.70;;;;;;6146818;29;20063;-66
2022/02/13 10:58:20;;;;;;;1.60;1.00;;;19.30;48.10;;;;;;6147239;29;20034;-66
2022/02/13 11:01:23;;;;;;;1.58;1.02;;;19.30;48.10;;;;;;6147029;29;20023;-66
2022/02/13 11:04:24;;;;;;;1.65;1.10;;;19.30;48.00;;;;;;6147120;29;20051;-66
2022/02/13 11:07:25;;;;;;;1.20;0.70;;;19.30;48.10;;;;;;6161688;28;20561;-66
2022/02/13 11:10:34;;;;;;;1.73;0.90;;;19.30;48.10;;;;;;6169605;28;20042;-66
2022/02/13 11:13:35;;;;;;;1.52;0.80;;;19.30;48.00;;;;;;6170851;28;20031;-66
2022/02/13 11:16:38;;;;;;;1.15;0.80;;;19.30;48.10;;;;;;6170522;28;20023;-66
2022/02/13 11:19:39;;;;;;;1.75;0.88;;;19.30;48.10;;;;;;6171002;28;20070;-66
2022/02/13 11:22:41;;;;;;;1.75;0.88;;;19.30;48.10;;;;;;6170539;28;20516;-66
2022/02/13 11:26:01;;;;;;;2.00;1.00;;;19.30;48.10;;;;;;6170042;28;20478;-66
2022/02/13 11:29:03;;;;;;;1.23;0.88;;;19.30;48.10;;;;;;6170248;28;20101;-66
2022/02/13 11:32:04;;;;;;;1.33;0.90;;;19.30;48.00;;;;;;6168221;28;20091;-66
2022/02/13 11:35:07;;;;;;;1.25;0.70;;;19.30;48.10;;;;;;6150436;28;20027;-66
2022/02/13 11:38:07;;;;;;;1.15;1.00;;;19.30;48.10;;;;;;6154141;28;20486;-66
2022/02/13 11:41:08;;;;;;;1.15;0.80;;;19.30;48.00;;;;;;6181695;28;20034;-66
2022/02/13 11:44:09;;;;;;;2.60;0.70;;;19.30;48.10;;;;;;6167735;28;20049;-66
2022/02/13 11:47:15;;;;;;;4.80;0.90;;;19.40;48.00;;;;;;6177783;28;20043;-66
2022/02/13 11:50:21;;;;;;;1.58;0.95;;;19.40;48.00;;;;;;6192350;28;20026;-66
2022/02/13 11:53:27;;;;;;;1.52;1.05;;;19.40;48.00;;;;;;6192329;28;20041;-67
2022/02/13 11:56:28;;;;;;;1.23;0.90;;;19.30;48.00;;;;;;6171225;28;20128;-66
2022/02/13 11:59:48;;;;;;;3.78;0.80;;;19.30;48.10;;;;;;6167608;28;20027;-66
2022/02/13 12:02:49;;;;;;;0.93;0.70;;;19.30;48.10;;;;;;6167965;28;20501;-66
2022/02/13 12:06:02;;;;;;;1.52;0.90;;;19.30;48.10;;;;;;6182753;28;20088;-66
2022/02/13 12:09:11;;;;;;;3.25;1.20;;;19.30;48.20;;;;;;6167226;28;20039;-66
2022/02/13 12:12:21;;;;;;;185.95;14.48;;;19.30;48.30;;;;;;6167711;28;20058;-66
2022/02/13 12:15:24;;;;;;;78.82;7.93;;;19.30;46.10;;;;;;6168947;28;20482;-66
2022/02/13 12:18:25;;;;;;;125.95;9.05;;;19.30;46.80;;;;;;6167463;28;20390;-67
2022/02/13 12:21:27;;;;;;;75.68;7.25;;;19.30;46.60;;;;;;6170091;28;20041;-66
2022/02/13 12:24:27;;;;;;;60.17;6.18;;;19.30;46.60;;;;;;6171389;28;20054;-65
2022/02/13 12:27:28;;;;;;;71.32;7.47;;;19.30;46.80;;;;;;6171627;28;20038;-66
2022/02/13 12:30:29;;;;;;;69.65;6.93;;;19.30;47.00;;;;;;6172651;28;20035;-67
2022/02/13 12:33:31;;;;;;;51.25;5.22;;;19.30;47.20;;;;;;6171771;28;20027;-66
2022/02/13 12:36:32;;;;;;;52.45;6.00;;;19.30;47.30;;;;;;6172549;28;20030;-66
2022/02/13 12:39:32;;;;;;;48.13;5.20;;;19.30;47.40;;;;;;6172217;28;20486;-66
2022/02/13 12:42:35;;;;;;;48.05;6.05;;;19.30;47.50;;;;;;6168718;28;20027;-66
2022/02/13 12:45:38;;;;;;;32.60;5.15;;;19.30;47.60;;;;;;6172089;28;20058;-66
2022/02/13 12:48:38;;;;;;;34.10;4.57;;;19.30;47.70;;;;;;6147955;28;20019;-66
2022/02/13 12:51:42;;;;;;;34.83;5.25;;;19.30;47.70;;;;;;6147951;28;20035;-66
2022/02/13 12:54:43;;;;;;;25.00;4.67;;;19.30;47.80;;;;;;6147769;28;20075;-66
2022/02/13 12:57:48;;;;;;;18.42;4.43;;;19.30;47.90;;;;;;6147393;28;20046;-66
2022/02/13 13:00:50;;;;;;;31.90;4.70;;;19.30;48.00;;;;;;6148191;28;20042;-66
2022/02/13 13:03:52;;;;;;;22.85;4.40;;;19.40;48.00;;;;;;6147519;28;20027;-66
2022/02/13 13:06:53;;;;;;;31.83;5.15;;;19.30;48.70;;;;;;6158296;28;20474;-67
2022/02/13 13:09:53;;;;;;;17.00;3.88;;;19.30;48.10;;;;;;6171395;28;20121;-66
2022/02/13 13:13:04;;;;;;;20.10;3.40;;;19.30;48.10;;;;;;6171397;28;20526;-66
2022/02/13 13:16:24;;;;;;;19.92;4.18;;;19.30;48.10;;;;;;6171254;28;20093;-66
2022/02/13 13:19:29;;;;;;;15.88;3.58;;;19.30;48.10;;;;;;6182536;28;20393;-67
2022/02/13 13:22:29;;;;;;;11.95;3.60;;;19.30;48.10;;;;;;6195750;28;20101;-67
2022/02/13 13:25:30;;;;;;;18.08;3.45;;;19.30;48.20;;;;;;6210022;28;20734;-66
2022/02/13 13:28:30;;;;;;;16.23;3.60;;;19.30;48.20;;;;;;6174092;28;20027;-65
2022/02/13 13:31:31;;;;;;;18.33;3.50;;;19.30;48.20;;;;;;6170099;28;20051;-65
2022/02/13 13:34:34;;;;;;;15.43;3.55;;;19.30;48.20;;;;;;6170580;28;20098;-67
2022/02/13 13:37:38;;;;;;;11.25;3.55;;;19.30;48.30;;;;;;6170436;28;20027;-67
2022/02/13 13:40:41;;;;;;;13.68;2.80;;;19.30;48.30;;;;;;6170615;28;20023;-66
2022/02/13 13:43:42;;;;;;;11.20;3.10;;;19.30;48.20;;;;;;6160475;28;20119;-64
2022/02/13 13:46:42;;;;;;;15.38;3.40;;;19.30;49.00;;;;;;6170395;28;20393;-67
2022/02/13 13:49:43;;;;;;;11.50;2.78;;;19.30;48.30;;;;;;6170349;28;20111;-66
2022/02/13 13:52:44;;;;;;;10.57;2.95;;;19.30;48.30;;;;;;6170182;28;20035;-66
2022/02/13 13:55:48;;;;;;;8.95;2.45;;;19.40;48.40;;;;;;6164791;28;20454;-67
2022/02/13 13:58:48;;;;;;;10.80;3.28;;;19.30;48.40;;;;;;6146218;28;20032;-66
2022/02/13 14:01:48;;;;;;;16.55;3.80;;;19.30;48.40;;;;;;6165368;28;20035;-66
2022/02/13 14:04:50;;;;;;;10.13;2.70;;;19.30;48.40;;;;;;6170414;28;20034;-66
2022/02/13 14:07:51;;;;;;;9.20;2.53;;;19.30;48.40;;;;;;6168693;28;20039;-67
2022/02/13 14:10:52;;;;;;;8.00;2.72;;;19.40;49.20;;;;;;6170617;28;20113;-66
2022/02/13 14:13:53;;;;;;;10.18;2.55;;;19.30;48.40;;;;;;6170403;28;20038;-67
2022/02/13 14:16:54;;;;;;;6.07;2.10;;;19.30;48.40;;;;;;6168315;28;20031;-66
2022/02/13 14:19:54;;;;;;;6.18;2.20;;;19.30;48.50;;;;;;6169270;28;20027;-65
2022/02/13 14:22:55;;;;;;;9.63;1.77;;;19.40;48.50;;;;;;6169278;28;20410;-66
2022/02/13 14:25:55;;;;;;;5.75;2.65;;;19.30;48.50;;;;;;6168975;28;20508;-67
2022/02/13 14:28:56;;;;;;;4.35;1.92;;;19.30;48.50;;;;;;6169428;28;20030;-66
2022/02/13 14:31:58;;;;;;;12.10;2.08;;;19.40;48.70;;;;;;6169013;28;20043;-65
2022/02/13 14:34:59;;;;;;;60.75;3.58;;;19.40;49.00;;;;;;6169498;28;20401;-66
2022/02/13 14:37:59;;;;;;;11.75;2.40;;;19.40;48.50;;;;;;6168716;28;20030;-66
2022/02/13 14:41:00;;;;;;;5.28;2.00;;;19.50;48.40;;;;;;6169298;28;20077;-66
2022/02/13 14:44:00;;;;;;;12.02;2.33;;;19.40;48.50;;;;;;6168980;28;20066;-66
2022/02/13 14:47:01;;;;;;;6.15;1.77;;;19.40;48.50;;;;;;6169434;28;20769;-66
2022/02/13 14:50:02;;;;;;;13.02;2.17;;;19.40;48.50;;;;;;6169137;28;20035;-66
2022/02/13 14:53:02;;;;;;;9.50;2.10;;;19.40;48.60;;;;;;6169408;28;20027;-66
2022/02/13 14:56:03;;;;;;;6.53;2.38;;;19.40;48.60;;;;;;6168781;28;20061;-66
2022/02/13 14:59:04;;;;;;;7.32;2.00;;;19.40;48.70;;;;;;6168543;28;20367;-66
2022/02/13 15:02:04;;;;;;;8.75;1.77;;;19.40;48.70;;;;;;6169354;28;20097;-66
2022/02/13 15:05:05;;;;;;;4.63;1.90;;;19.40;48.70;;;;;;6168848;28;20031;-66
2022/02/13 15:08:06;;;;;;;7.60;1.83;;;19.40;48.70;;;;;;6168444;28;20411;-66
2022/02/13 15:11:06;;;;;;;3.88;1.90;;;19.40;48.70;;;;;;6169068;28;20102;-66
2022/02/13 15:14:07;;;;;;;7.20;1.90;;;19.40;48.60;;;;;;6168900;28;20454;-66
2022/02/13 15:17:08;;;;;;;3.95;1.55;;;19.40;48.70;;;;;;6168140;28;20038;-66
2022/02/13 15:20:10;;;;;;;5.38;2.00;;;19.40;48.70;;;;;;6168361;28;20062;-66
2022/02/13 15:23:10;;;;;;;5.68;1.98;;;19.40;48.70;;;;;;6168566;28;20018;-66
2022/02/13 15:26:11;;;;;;;11.43;1.75;;;19.40;48.60;;;;;;6168388;28;20031;-66
2022/02/13 15:29:12;;;;;;;4.85;1.83;;;19.40;48.70;;;;;;6167253;28;20034;-66
2022/02/13 15:32:12;;;;;;;8.25;1.80;;;19.40;48.70;;;;;;6167875;28;20039;-66
2022/02/13 15:35:13;;;;;;;2.55;1.30;;;19.40;48.70;;;;;;6168190;28;20054;-66
2022/02/13 15:38:14;;;;;;;5.05;1.67;;;19.40;48.70;;;;;;6167661;28;20086;-66
2022/02/13 15:41:14;;;;;;;2.47;1.15;;;19.40;48.70;;;;;;6163865;28;20110;-66
2022/02/13 15:44:15;;;;;;;2.60;1.25;;;19.40;48.70;;;;;;6162425;28;20058;-66
2022/02/13 15:47:16;;;;;;;2.28;1.20;;;19.40;48.70;;;;;;6167783;28;20031;-66